sensor_id;sensor_type;location;lat;lon;timestamp;temperature;humidity
46159;DHT22;31888;44.512;26.104;2022-11-15T00:01:54;9.10;99.90
46159;DHT22;31888;44.512;26.104;2022-11-15T00:04:17;9.10;99.90
46159;DHT22;31888;44.512;26.104;2022-11-15T00:06:39;9.10;99.90
46159;DHT22;31888;44.512;26.104;2022-11-15T00:09:02;9.20;99.90
46159;DHT22;31888;44.512;26.104;2022-11-15T00:11:27;9.30;99.90
46159;DHT22;31888;44.512;26.104;2022-11-15T00:13:50;9.30;99.90
46159;DHT22;31888;44.512;26.104;2022-11-15T00:16:13;9.30;99.90
46159;DHT22;31888;44.512;26.104;2022-11-15T00:18:37;9.20;99.90
46159;DHT22;31888;44.512;26.104;2022-11-15T00:21:04;9.20;99.90
46159;DHT22;31888;44.512;26.104;2022-11-15T00:23:27;9.20;99.90
46159;DHT22;31888;44.512;26.104;2022-11-15T00:25:55;9.20;99.90
46159;DHT22;31888;44.512;26.104;2022-11-15T00:28:20;9.20;99.90
46159;DHT22;31888;44.512;26.104;2022-11-15T00:30:43;9.30;99.90
46159;DHT22;31888;44.512;26.104;2022-11-15T00:33:06;9.20;99.90
46159;DHT22;31888;44.512;26.104;2022-11-15T00:35:31;9.20;99.90
46159;DHT22;31888;44.512;26.104;2022-11-15T00:37:54;9.20;99.90
46159;DHT22;31888;44.512;26.104;2022-11-15T00:40:17;9.20;99.90
46159;DHT22;31888;44.512;26.104;2022-11-15T00:42:41;9.20;99.90
46159;DHT22;31888;44.512;26.104;2022-11-15T00:45:06;9.20;99.90
46159;DHT22;31888;44.512;26.104;2022-11-15T00:47:29;9.20;99.90
46159;DHT22;31888;44.512;26.104;2022-11-15T00:49:52;9.10;99.90
46159;DHT22;31888;44.512;26.104;2022-11-15T00:52:15;9.10;99.90
46159;DHT22;31888;44.512;26.104;2022-11-15T00:54:37;9.10;99.90
46159;DHT22;31888;44.512;26.104;2022-11-15T00:57:01;9.00;99.90
46159;DHT22;31888;44.512;26.104;2022-11-15T00:59:23;9.00;99.90
46159;DHT22;31888;44.512;26.104;2022-11-15T01:01:47;9.00;99.90
46159;DHT22;31888;44.512;26.104;2022-11-15T01:04:10;9.00;99.90
46159;DHT22;31888;44.512;26.104;2022-11-15T01:06:33;9.00;99.90
46159;DHT22;31888;44.512;26.104;2022-11-15T01:08:56;9.00;99.90
46159;DHT22;31888;44.512;26.104;2022-11-15T01:11:19;9.00;99.90
46159;DHT22;31888;44.512;26.104;2022-11-15T01:13:41;9.10;99.90
46159;DHT22;31888;44.512;26.104;2022-11-15T01:16:10;9.10;99.90
46159;DHT22;31888;44.512;26.104;2022-11-15T01:18:35;9.10;99.90
46159;DHT22;31888;44.512;26.104;2022-11-15T01:20:57;9.10;99.90
46159;DHT22;31888;44.512;26.104;2022-11-15T01:23:20;9.10;99.90
46159;DHT22;31888;44.512;26.104;2022-11-15T01:25:43;9.10;99.90
46159;DHT22;31888;44.512;26.104;2022-11-15T01:28:05;9.20;99.90
46159;DHT22;31888;44.512;26.104;2022-11-15T01:30:28;9.10;99.90
46159;DHT22;31888;44.512;26.104;2022-11-15T01:32:51;9.10;99.90
46159;DHT22;31888;44.512;26.104;2022-11-15T01:35:15;9.20;99.90
46159;DHT22;31888;44.512;26.104;2022-11-15T01:37:38;9.30;99.90
46159;DHT22;31888;44.512;26.104;2022-11-15T01:40:01;9.30;99.90
46159;DHT22;31888;44.512;26.104;2022-11-15T01:42:24;9.30;99.90
46159;DHT22;31888;44.512;26.104;2022-11-15T01:44:48;9.30;99.90
46159;DHT22;31888;44.512;26.104;2022-11-15T01:47:15;9.30;99.90
46159;DHT22;31888;44.512;26.104;2022-11-15T01:49:40;9.30;99.90
46159;DHT22;31888;44.512;26.104;2022-11-15T01:52:08;9.30;99.90
46159;DHT22;31888;44.512;26.104;2022-11-15T01:54:33;9.30;99.90
46159;DHT22;31888;44.512;26.104;2022-11-15T01:56:59;9.30;99.90
46159;DHT22;31888;44.512;26.104;2022-11-15T01:59:23;9.40;99.90
46159;DHT22;31888;44.512;26.104;2022-11-15T02:01:47;9.30;99.90
46159;DHT22;31888;44.512;26.104;2022-11-15T02:04:13;9.20;99.90
46159;DHT22;31888;44.512;26.104;2022-11-15T02:06:36;9.30;99.90
46159;DHT22;31888;44.512;26.104;2022-11-15T02:09:01;9.30;99.90
46159;DHT22;31888;44.512;26.104;2022-11-15T02:11:24;9.30;99.90
46159;DHT22;31888;44.512;26.104;2022-11-15T02:13:47;9.30;99.90
46159;DHT22;31888;44.512;26.104;2022-11-15T02:16:35;9.30;99.90
46159;DHT22;31888;44.512;26.104;2022-11-15T02:19:18;9.30;99.90
46159;DHT22;31888;44.512;26.104;2022-11-15T02:21:52;9.20;99.90
46159;DHT22;31888;44.512;26.104;2022-11-15T02:24:57;9.20;99.90
46159;DHT22;31888;44.512;26.104;2022-11-15T02:27:29;9.30;99.90
46159;DHT22;31888;44.512;26.104;2022-11-15T02:30:21;9.30;99.90
46159;DHT22;31888;44.512;26.104;2022-11-15T02:32:47;9.40;99.90
46159;DHT22;31888;44.512;26.104;2022-11-15T02:35:16;9.30;99.90
46159;DHT22;31888;44.512;26.104;2022-11-15T02:37:45;9.20;99.90
46159;DHT22;31888;44.512;26.104;2022-11-15T02:40:14;9.10;99.90
46159;DHT22;31888;44.512;26.104;2022-11-15T02:42:44;9.10;99.90
46159;DHT22;31888;44.512;26.104;2022-11-15T02:45:31;9.10;99.90
46159;DHT22;31888;44.512;26.104;2022-11-15T02:47:57;9.10;99.90
46159;DHT22;31888;44.512;26.104;2022-11-15T02:50:24;9.20;99.90
46159;DHT22;31888;44.512;26.104;2022-11-15T02:52:48;9.20;99.90
46159;DHT22;31888;44.512;26.104;2022-11-15T02:55:26;9.20;99.90
46159;DHT22;31888;44.512;26.104;2022-11-15T02:57:54;9.30;99.90
46159;DHT22;31888;44.512;26.104;2022-11-15T03:00:22;9.30;99.90
46159;DHT22;31888;44.512;26.104;2022-11-15T03:03:06;9.30;99.90
46159;DHT22;31888;44.512;26.104;2022-11-15T03:05:35;9.40;99.90
46159;DHT22;31888;44.512;26.104;2022-11-15T03:08:05;9.40;99.90
46159;DHT22;31888;44.512;26.104;2022-11-15T03:10:36;9.40;99.90
46159;DHT22;31888;44.512;26.104;2022-11-15T03:13:12;9.30;99.90
46159;DHT22;31888;44.512;26.104;2022-11-15T03:15:44;9.30;99.90
46159;DHT22;31888;44.512;26.104;2022-11-15T03:18:18;9.30;99.90
46159;DHT22;31888;44.512;26.104;2022-11-15T03:20:42;9.40;99.90
46159;DHT22;31888;44.512;26.104;2022-11-15T03:23:08;9.40;99.90
46159;DHT22;31888;44.512;26.104;2022-11-15T03:25:32;9.40;99.90
46159;DHT22;31888;44.512;26.104;2022-11-15T03:27:58;9.40;99.90
46159;DHT22;31888;44.512;26.104;2022-11-15T03:30:22;9.40;99.90
46159;DHT22;31888;44.512;26.104;2022-11-15T03:32:47;9.30;99.90
46159;DHT22;31888;44.512;26.104;2022-11-15T03:35:15;9.30;99.90
46159;DHT22;31888;44.512;26.104;2022-11-15T03:37:43;9.30;99.90
46159;DHT22;31888;44.512;26.104;2022-11-15T03:40:08;9.30;99.90
46159;DHT22;31888;44.512;26.104;2022-11-15T03:42:37;9.20;99.90
46159;DHT22;31888;44.512;26.104;2022-11-15T03:45:05;9.20;99.90
46159;DHT22;31888;44.512;26.104;2022-11-15T03:47:34;9.20;99.90
46159;DHT22;31888;44.512;26.104;2022-11-15T03:49:59;9.20;99.90
46159;DHT22;31888;44.512;26.104;2022-11-15T03:52:25;9.20;99.90
46159;DHT22;31888;44.512;26.104;2022-11-15T03:54:53;9.20;99.90
46159;DHT22;31888;44.512;26.104;2022-11-15T03:57:16;9.20;99.90
46159;DHT22;31888;44.512;26.104;2022-11-15T03:59:38;9.20;99.90
46159;DHT22;31888;44.512;26.104;2022-11-15T04:02:01;9.30;99.90
46159;DHT22;31888;44.512;26.104;2022-11-15T04:04:24;9.30;99.90
46159;DHT22;31888;44.512;26.104;2022-11-15T04:06:47;9.10;99.90
46159;DHT22;31888;44.512;26.104;2022-11-15T04:09:11;9.10;99.90
46159;DHT22;31888;44.512;26.104;2022-11-15T04:11:33;9.10;99.90
46159;DHT22;31888;44.512;26.104;2022-11-15T04:13:56;9.10;99.90
46159;DHT22;31888;44.512;26.104;2022-11-15T04:16:19;9.10;99.90
46159;DHT22;31888;44.512;26.104;2022-11-15T04:18:41;9.10;99.90
46159;DHT22;31888;44.512;26.104;2022-11-15T04:21:04;9.20;99.90
46159;DHT22;31888;44.512;26.104;2022-11-15T04:23:44;9.20;99.90
46159;DHT22;31888;44.512;26.104;2022-11-15T04:26:27;9.20;99.90
46159;DHT22;31888;44.512;26.104;2022-11-15T04:28:50;9.20;99.90
46159;DHT22;31888;44.512;26.104;2022-11-15T04:31:30;9.10;99.90
46159;DHT22;31888;44.512;26.104;2022-11-15T04:33:53;9.10;99.90
46159;DHT22;31888;44.512;26.104;2022-11-15T04:36:16;9.10;99.90
46159;DHT22;31888;44.512;26.104;2022-11-15T04:38:56;9.00;99.90
46159;DHT22;31888;44.512;26.104;2022-11-15T04:41:18;8.90;99.90
46159;DHT22;31888;44.512;26.104;2022-11-15T04:43:42;9.00;99.90
46159;DHT22;31888;44.512;26.104;2022-11-15T04:46:05;8.90;99.90
46159;DHT22;31888;44.512;26.104;2022-11-15T04:48:28;9.00;99.90
46159;DHT22;31888;44.512;26.104;2022-11-15T04:50:50;9.00;99.90
46159;DHT22;31888;44.512;26.104;2022-11-15T04:53:13;9.00;99.90
46159;DHT22;31888;44.512;26.104;2022-11-15T04:55:36;9.00;99.90
46159;DHT22;31888;44.512;26.104;2022-11-15T04:57:59;9.10;99.90
46159;DHT22;31888;44.512;26.104;2022-11-15T05:00:23;9.10;99.90
46159;DHT22;31888;44.512;26.104;2022-11-15T05:02:46;9.10;99.90
46159;DHT22;31888;44.512;26.104;2022-11-15T05:05:27;9.10;99.90
46159;DHT22;31888;44.512;26.104;2022-11-15T05:07:50;9.10;99.90
46159;DHT22;31888;44.512;26.104;2022-11-15T05:10:13;9.10;99.90
46159;DHT22;31888;44.512;26.104;2022-11-15T05:12:35;9.10;99.90
46159;DHT22;31888;44.512;26.104;2022-11-15T05:14:58;9.20;99.90
46159;DHT22;31888;44.512;26.104;2022-11-15T05:17:22;9.20;99.90
46159;DHT22;31888;44.512;26.104;2022-11-15T05:19:45;9.10;99.90
46159;DHT22;31888;44.512;26.104;2022-11-15T05:22:08;9.00;99.90
46159;DHT22;31888;44.512;26.104;2022-11-15T05:24:31;9.00;99.90
46159;DHT22;31888;44.512;26.104;2022-11-15T05:26:53;9.00;99.90
46159;DHT22;31888;44.512;26.104;2022-11-15T05:29:16;8.90;99.90
46159;DHT22;31888;44.512;26.104;2022-11-15T05:31:40;9.00;99.90
46159;DHT22;31888;44.512;26.104;2022-11-15T05:34:05;9.00;99.90
46159;DHT22;31888;44.512;26.104;2022-11-15T05:36:31;9.10;99.90
46159;DHT22;31888;44.512;26.104;2022-11-15T05:38:56;9.10;99.90
46159;DHT22;31888;44.512;26.104;2022-11-15T05:41:22;9.00;99.90
46159;DHT22;31888;44.512;26.104;2022-11-15T05:43:48;9.00;99.90
46159;DHT22;31888;44.512;26.104;2022-11-15T05:46:13;9.00;99.90
46159;DHT22;31888;44.512;26.104;2022-11-15T05:48:37;9.00;99.90
46159;DHT22;31888;44.512;26.104;2022-11-15T05:51:04;9.00;99.90
46159;DHT22;31888;44.512;26.104;2022-11-15T05:53:27;9.00;99.90
46159;DHT22;31888;44.512;26.104;2022-11-15T05:55:50;8.90;99.90
46159;DHT22;31888;44.512;26.104;2022-11-15T05:58:13;8.90;99.90
46159;DHT22;31888;44.512;26.104;2022-11-15T06:00:35;9.00;99.90
46159;DHT22;31888;44.512;26.104;2022-11-15T06:02:58;8.90;99.90
46159;DHT22;31888;44.512;26.104;2022-11-15T06:05:21;8.90;99.90
46159;DHT22;31888;44.512;26.104;2022-11-15T06:07:45;8.90;99.90
46159;DHT22;31888;44.512;26.104;2022-11-15T06:10:08;9.00;99.90
46159;DHT22;31888;44.512;26.104;2022-11-15T06:12:31;9.00;99.90
46159;DHT22;31888;44.512;26.104;2022-11-15T06:14:54;9.10;99.90
46159;DHT22;31888;44.512;26.104;2022-11-15T06:17:16;9.00;99.90
46159;DHT22;31888;44.512;26.104;2022-11-15T06:19:40;9.00;99.90
46159;DHT22;31888;44.512;26.104;2022-11-15T06:22:02;9.00;99.90
46159;DHT22;31888;44.512;26.104;2022-11-15T06:24:26;9.00;99.90
46159;DHT22;31888;44.512;26.104;2022-11-15T06:26:49;9.10;99.90
46159;DHT22;31888;44.512;26.104;2022-11-15T06:29:12;9.10;99.90
46159;DHT22;31888;44.512;26.104;2022-11-15T06:31:34;9.00;99.90
46159;DHT22;31888;44.512;26.104;2022-11-15T06:33:57;9.00;99.90
46159;DHT22;31888;44.512;26.104;2022-11-15T06:36:19;9.00;99.90
46159;DHT22;31888;44.512;26.104;2022-11-15T06:38:42;9.00;99.90
46159;DHT22;31888;44.512;26.104;2022-11-15T06:41:09;9.10;99.90
46159;DHT22;31888;44.512;26.104;2022-11-15T06:43:32;8.90;99.90
46159;DHT22;31888;44.512;26.104;2022-11-15T06:45:56;8.90;99.90
46159;DHT22;31888;44.512;26.104;2022-11-15T06:48:20;9.00;99.90
46159;DHT22;31888;44.512;26.104;2022-11-15T06:50:42;9.00;99.90
46159;DHT22;31888;44.512;26.104;2022-11-15T06:53:05;9.00;99.90
46159;DHT22;31888;44.512;26.104;2022-11-15T06:55:28;9.10;99.90
46159;DHT22;31888;44.512;26.104;2022-11-15T06:57:53;9.00;99.90
46159;DHT22;31888;44.512;26.104;2022-11-15T07:00:17;8.90;99.90
46159;DHT22;31888;44.512;26.104;2022-11-15T07:02:40;8.90;99.90
46159;DHT22;31888;44.512;26.104;2022-11-15T07:05:03;8.90;99.90
46159;DHT22;31888;44.512;26.104;2022-11-15T07:07:26;8.90;99.90
46159;DHT22;31888;44.512;26.104;2022-11-15T07:09:49;9.00;99.90
46159;DHT22;31888;44.512;26.104;2022-11-15T07:12:12;9.10;99.90
46159;DHT22;31888;44.512;26.104;2022-11-15T07:14:36;9.10;99.90
46159;DHT22;31888;44.512;26.104;2022-11-15T07:16:59;9.10;99.90
46159;DHT22;31888;44.512;26.104;2022-11-15T07:19:22;9.10;99.90
46159;DHT22;31888;44.512;26.104;2022-11-15T07:21:44;9.10;99.90
46159;DHT22;31888;44.512;26.104;2022-11-15T07:24:08;9.10;99.90
46159;DHT22;31888;44.512;26.104;2022-11-15T07:26:31;9.10;99.90
46159;DHT22;31888;44.512;26.104;2022-11-15T07:28:53;9.10;99.90
46159;DHT22;31888;44.512;26.104;2022-11-15T07:31:18;9.10;99.90
46159;DHT22;31888;44.512;26.104;2022-11-15T07:33:53;9.10;99.90
46159;DHT22;31888;44.512;26.104;2022-11-15T07:40:40;9.10;99.90
46159;DHT22;31888;44.512;26.104;2022-11-15T07:43:05;9.20;99.90
46159;DHT22;31888;44.512;26.104;2022-11-15T07:45:28;9.20;99.90
46159;DHT22;31888;44.512;26.104;2022-11-15T07:47:54;9.20;99.90
46159;DHT22;31888;44.512;26.104;2022-11-15T07:50:24;9.20;99.90
46159;DHT22;31888;44.512;26.104;2022-11-15T07:53:03;9.10;99.90
46159;DHT22;31888;44.512;26.104;2022-11-15T07:55:32;9.10;99.90
46159;DHT22;31888;44.512;26.104;2022-11-15T07:58:07;9.10;99.90
46159;DHT22;31888;44.512;26.104;2022-11-15T08:01:06;9.10;99.90
46159;DHT22;31888;44.512;26.104;2022-11-15T08:07:35;9.20;99.90
46159;DHT22;31888;44.512;26.104;2022-11-15T08:10:03;9.10;99.90
46159;DHT22;31888;44.512;26.104;2022-11-15T08:12:39;9.10;99.90
46159;DHT22;31888;44.512;26.104;2022-11-15T08:15:10;9.10;99.90
46159;DHT22;31888;44.512;26.104;2022-11-15T08:17:41;9.10;99.90
46159;DHT22;31888;44.512;26.104;2022-11-15T08:20:15;9.10;99.90
46159;DHT22;31888;44.512;26.104;2022-11-15T08:23:22;9.10;99.90
46159;DHT22;31888;44.512;26.104;2022-11-15T08:26:29;9.10;99.90
46159;DHT22;31888;44.512;26.104;2022-11-15T08:29:44;9.10;99.90
46159;DHT22;31888;44.512;26.104;2022-11-15T08:45:00;9.30;99.90
46159;DHT22;31888;44.512;26.104;2022-11-15T08:57:00;9.20;99.90
46159;DHT22;31888;44.512;26.104;2022-11-15T09:00:22;9.20;99.90
46159;DHT22;31888;44.512;26.104;2022-11-15T09:09:10;9.30;99.90
46159;DHT22;31888;44.512;26.104;2022-11-15T09:12:47;9.30;99.90
46159;DHT22;31888;44.512;26.104;2022-11-15T09:24:26;9.10;99.90
46159;DHT22;31888;44.512;26.104;2022-11-15T09:26:50;9.00;99.90
46159;DHT22;31888;44.512;26.104;2022-11-15T09:29:13;9.00;99.90
46159;DHT22;31888;44.512;26.104;2022-11-15T09:31:36;9.00;99.90
46159;DHT22;31888;44.512;26.104;2022-11-15T09:33:59;8.90;99.90
46159;DHT22;31888;44.512;26.104;2022-11-15T09:36:22;9.10;99.90
46159;DHT22;31888;44.512;26.104;2022-11-15T09:38:46;9.10;99.90
46159;DHT22;31888;44.512;26.104;2022-11-15T09:41:29;9.10;99.90
46159;DHT22;31888;44.512;26.104;2022-11-15T09:44:06;9.20;99.90
46159;DHT22;31888;44.512;26.104;2022-11-15T09:46:39;9.30;99.90
46159;DHT22;31888;44.512;26.104;2022-11-15T09:49:19;9.30;99.90
46159;DHT22;31888;44.512;26.104;2022-11-15T09:51:40;9.30;99.90
46159;DHT22;31888;44.512;26.104;2022-11-15T09:54:00;9.40;99.90
46159;DHT22;31888;44.512;26.104;2022-11-15T09:56:28;9.40;99.90
46159;DHT22;31888;44.512;26.104;2022-11-15T09:58:37;9.40;99.90
46159;DHT22;31888;44.512;26.104;2022-11-15T10:00:47;9.40;99.90
46159;DHT22;31888;44.512;26.104;2022-11-15T10:03:08;9.40;99.90
46159;DHT22;31888;44.512;26.104;2022-11-15T10:05:17;9.40;99.90
46159;DHT22;31888;44.512;26.104;2022-11-15T10:07:26;9.30;99.90
46159;DHT22;31888;44.512;26.104;2022-11-15T10:09:49;9.40;99.90
46159;DHT22;31888;44.512;26.104;2022-11-15T10:13:13;9.40;99.90
46159;DHT22;31888;44.512;26.104;2022-11-15T10:15:27;9.30;99.90
46159;DHT22;31888;44.512;26.104;2022-11-15T10:18:06;9.30;99.90
46159;DHT22;31888;44.512;26.104;2022-11-15T10:40:16;9.40;99.90
46159;DHT22;31888;44.512;26.104;2022-11-15T10:44:08;9.40;99.90
46159;DHT22;31888;44.512;26.104;2022-11-15T10:46:28;9.40;99.90
46159;DHT22;31888;44.512;26.104;2022-11-15T10:54:59;9.50;99.90
46159;DHT22;31888;44.512;26.104;2022-11-15T11:02:58;9.70;99.90
46159;DHT22;31888;44.512;26.104;2022-11-15T11:07:08;9.70;99.90
46159;DHT22;31888;44.512;26.104;2022-11-15T11:10:55;9.50;99.90
46159;DHT22;31888;44.512;26.104;2022-11-15T11:13:40;9.60;99.90
46159;DHT22;31888;44.512;26.104;2022-11-15T11:16:36;9.50;99.90
46159;DHT22;31888;44.512;26.104;2022-11-15T11:19:02;9.40;99.90
46159;DHT22;31888;44.512;26.104;2022-11-15T11:21:22;9.40;99.90
46159;DHT22;31888;44.512;26.104;2022-11-15T11:23:48;9.40;99.90
46159;DHT22;31888;44.512;26.104;2022-11-15T11:26:12;9.40;99.90
46159;DHT22;31888;44.512;26.104;2022-11-15T11:32:02;9.40;99.90
46159;DHT22;31888;44.512;26.104;2022-11-15T11:34:49;9.40;99.90
46159;DHT22;31888;44.512;26.104;2022-11-15T11:41:23;9.40;99.90
46159;DHT22;31888;44.512;26.104;2022-11-15T11:44:52;9.40;99.90
46159;DHT22;31888;44.512;26.104;2022-11-15T11:48:46;9.30;99.90
46159;DHT22;31888;44.512;26.104;2022-11-15T11:52:17;9.30;99.90
46159;DHT22;31888;44.512;26.104;2022-11-15T11:56:54;9.20;99.90
46159;DHT22;31888;44.512;26.104;2022-11-15T12:26:01;9.20;99.90
46159;DHT22;31888;44.512;26.104;2022-11-15T12:58:24;9.10;99.90
46159;DHT22;31888;44.512;26.104;2022-11-15T13:13:40;9.00;99.90
46159;DHT22;31888;44.512;26.104;2022-11-15T13:19:43;9.10;99.90
46159;DHT22;31888;44.512;26.104;2022-11-15T13:22:25;9.00;99.90
46159;DHT22;31888;44.512;26.104;2022-11-15T13:25:37;9.00;99.90
46159;DHT22;31888;44.512;26.104;2022-11-15T13:39:12;9.00;99.90
46159;DHT22;31888;44.512;26.104;2022-11-15T13:42:50;9.00;99.90
46159;DHT22;31888;44.512;26.104;2022-11-15T14:03:14;8.80;99.90
46159;DHT22;31888;44.512;26.104;2022-11-15T14:08:30;8.90;99.90
46159;DHT22;31888;44.512;26.104;2022-11-15T14:47:10;8.70;99.90
46159;DHT22;31888;44.512;26.104;2022-11-15T14:59:38;8.60;99.90
46159;DHT22;31888;44.512;26.104;2022-11-15T15:02:49;8.60;99.90
46159;DHT22;31888;44.512;26.104;2022-11-15T15:06:45;8.50;99.90
46159;DHT22;31888;44.512;26.104;2022-11-15T15:10:35;8.50;99.90
46159;DHT22;31888;44.512;26.104;2022-11-15T15:28:46;8.40;99.90
46159;DHT22;31888;44.512;26.104;2022-11-15T15:40:44;8.40;99.90
46159;DHT22;31888;44.512;26.104;2022-11-15T15:42:49;8.50;99.90
46159;DHT22;31888;44.512;26.104;2022-11-15T15:44:54;8.40;99.90
46159;DHT22;31888;44.512;26.104;2022-11-15T15:46:58;8.40;99.90
46159;DHT22;31888;44.512;26.104;2022-11-15T15:49:03;8.40;99.90
46159;DHT22;31888;44.512;26.104;2022-11-15T15:51:07;8.40;99.90
46159;DHT22;31888;44.512;26.104;2022-11-15T15:53:21;8.40;99.90
46159;DHT22;31888;44.512;26.104;2022-11-15T15:55:25;8.50;99.90
46159;DHT22;31888;44.512;26.104;2022-11-15T15:57:32;8.40;99.90
46159;DHT22;31888;44.512;26.104;2022-11-15T15:59:36;8.40;99.90
46159;DHT22;31888;44.512;26.104;2022-11-15T16:01:40;8.40;99.90
46159;DHT22;31888;44.512;26.104;2022-11-15T16:03:45;8.40;99.90
46159;DHT22;31888;44.512;26.104;2022-11-15T16:05:50;8.40;99.90
46159;DHT22;31888;44.512;26.104;2022-11-15T16:07:54;8.30;99.90
46159;DHT22;31888;44.512;26.104;2022-11-15T16:09:58;8.30;99.90
46159;DHT22;31888;44.512;26.104;2022-11-15T16:12:06;8.30;99.90
46159;DHT22;31888;44.512;26.104;2022-11-15T16:14:11;8.30;99.90
46159;DHT22;31888;44.512;26.104;2022-11-15T16:16:21;8.20;99.90
46159;DHT22;31888;44.512;26.104;2022-11-15T16:18:25;8.30;99.90
46159;DHT22;31888;44.512;26.104;2022-11-15T16:20:36;8.30;99.90
46159;DHT22;31888;44.512;26.104;2022-11-15T16:22:42;8.20;99.90
46159;DHT22;31888;44.512;26.104;2022-11-15T16:24:46;8.30;99.90
46159;DHT22;31888;44.512;26.104;2022-11-15T16:26:50;8.30;99.90
46159;DHT22;31888;44.512;26.104;2022-11-15T16:28:55;8.30;99.90
46159;DHT22;31888;44.512;26.104;2022-11-15T16:31:03;8.40;99.90
46159;DHT22;31888;44.512;26.104;2022-11-15T16:33:07;8.40;99.90
46159;DHT22;31888;44.512;26.104;2022-11-15T16:35:12;8.40;99.90
46159;DHT22;31888;44.512;26.104;2022-11-15T16:37:22;8.40;99.90
46159;DHT22;31888;44.512;26.104;2022-11-15T16:39:26;8.40;99.90
46159;DHT22;31888;44.512;26.104;2022-11-15T16:41:32;8.40;99.90
46159;DHT22;31888;44.512;26.104;2022-11-15T16:43:36;8.40;99.90
46159;DHT22;31888;44.512;26.104;2022-11-15T16:45:41;8.30;99.90
46159;DHT22;31888;44.512;26.104;2022-11-15T16:47:46;8.40;99.90
46159;DHT22;31888;44.512;26.104;2022-11-15T16:49:50;8.30;99.90
46159;DHT22;31888;44.512;26.104;2022-11-15T16:51:54;8.40;99.90
46159;DHT22;31888;44.512;26.104;2022-11-15T16:53:59;8.30;99.90
46159;DHT22;31888;44.512;26.104;2022-11-15T16:56:08;8.30;99.90
46159;DHT22;31888;44.512;26.104;2022-11-15T16:58:16;8.30;99.90
46159;DHT22;31888;44.512;26.104;2022-11-15T17:00:21;8.30;99.90
46159;DHT22;31888;44.512;26.104;2022-11-15T17:02:25;8.20;99.90
46159;DHT22;31888;44.512;26.104;2022-11-15T17:04:30;8.30;99.90
46159;DHT22;31888;44.512;26.104;2022-11-15T17:06:36;8.30;99.90
46159;DHT22;31888;44.512;26.104;2022-11-15T17:08:40;8.30;99.90
46159;DHT22;31888;44.512;26.104;2022-11-15T17:10:45;8.30;99.90
46159;DHT22;31888;44.512;26.104;2022-11-15T17:12:49;8.30;99.90
46159;DHT22;31888;44.512;26.104;2022-11-15T17:14:53;8.30;99.90
46159;DHT22;31888;44.512;26.104;2022-11-15T17:16:57;8.30;99.90
46159;DHT22;31888;44.512;26.104;2022-11-15T17:19:02;8.30;99.90
46159;DHT22;31888;44.512;26.104;2022-11-15T17:21:12;8.20;99.90
46159;DHT22;31888;44.512;26.104;2022-11-15T17:23:16;8.30;99.90
46159;DHT22;31888;44.512;26.104;2022-11-15T17:25:20;8.30;99.90
46159;DHT22;31888;44.512;26.104;2022-11-15T17:27:25;8.30;99.90
46159;DHT22;31888;44.512;26.104;2022-11-15T17:29:29;8.30;99.90
46159;DHT22;31888;44.512;26.104;2022-11-15T17:31:34;8.30;99.90
46159;DHT22;31888;44.512;26.104;2022-11-15T17:33:38;8.20;99.90
46159;DHT22;31888;44.512;26.104;2022-11-15T17:35:43;8.20;99.90
46159;DHT22;31888;44.512;26.104;2022-11-15T17:37:49;8.20;99.90
46159;DHT22;31888;44.512;26.104;2022-11-15T17:39:53;8.20;99.90
46159;DHT22;31888;44.512;26.104;2022-11-15T17:41:58;8.20;99.90
46159;DHT22;31888;44.512;26.104;2022-11-15T17:44:02;8.20;99.90
46159;DHT22;31888;44.512;26.104;2022-11-15T17:46:08;8.20;99.90
46159;DHT22;31888;44.512;26.104;2022-11-15T17:48:12;8.10;99.90
46159;DHT22;31888;44.512;26.104;2022-11-15T17:50:16;8.20;99.90
46159;DHT22;31888;44.512;26.104;2022-11-15T17:52:20;8.20;99.90
46159;DHT22;31888;44.512;26.104;2022-11-15T17:54:26;8.20;99.90
46159;DHT22;31888;44.512;26.104;2022-11-15T17:56:30;8.20;99.90
46159;DHT22;31888;44.512;26.104;2022-11-15T17:58:34;8.20;99.90
46159;DHT22;31888;44.512;26.104;2022-11-15T18:00:39;8.20;99.90
46159;DHT22;31888;44.512;26.104;2022-11-15T18:02:43;8.20;99.90
46159;DHT22;31888;44.512;26.104;2022-11-15T18:04:47;8.20;99.90
46159;DHT22;31888;44.512;26.104;2022-11-15T18:06:51;8.20;99.90
46159;DHT22;31888;44.512;26.104;2022-11-15T18:08:58;8.20;99.90
46159;DHT22;31888;44.512;26.104;2022-11-15T18:11:05;8.20;99.90
46159;DHT22;31888;44.512;26.104;2022-11-15T18:13:10;8.20;99.90
46159;DHT22;31888;44.512;26.104;2022-11-15T18:15:14;8.20;99.90
46159;DHT22;31888;44.512;26.104;2022-11-15T18:17:20;8.20;99.90
46159;DHT22;31888;44.512;26.104;2022-11-15T18:19:25;8.20;99.90
46159;DHT22;31888;44.512;26.104;2022-11-15T18:21:30;8.20;99.90
46159;DHT22;31888;44.512;26.104;2022-11-15T18:23:36;8.20;99.90
46159;DHT22;31888;44.512;26.104;2022-11-15T18:25:40;8.20;99.90
46159;DHT22;31888;44.512;26.104;2022-11-15T18:27:46;8.10;99.90
46159;DHT22;31888;44.512;26.104;2022-11-15T18:29:54;8.10;99.90
46159;DHT22;31888;44.512;26.104;2022-11-15T18:31:58;8.00;99.90
46159;DHT22;31888;44.512;26.104;2022-11-15T18:34:08;8.00;99.90
46159;DHT22;31888;44.512;26.104;2022-11-15T18:36:14;8.10;99.90
46159;DHT22;31888;44.512;26.104;2022-11-15T18:38:18;8.10;99.90
46159;DHT22;31888;44.512;26.104;2022-11-15T18:40:22;8.10;99.90
46159;DHT22;31888;44.512;26.104;2022-11-15T18:42:27;8.10;99.90
46159;DHT22;31888;44.512;26.104;2022-11-15T18:44:36;8.10;99.90
46159;DHT22;31888;44.512;26.104;2022-11-15T18:46:40;8.00;99.90
46159;DHT22;31888;44.512;26.104;2022-11-15T18:48:46;8.00;99.90
46159;DHT22;31888;44.512;26.104;2022-11-15T18:50:52;8.00;99.90
46159;DHT22;31888;44.512;26.104;2022-11-15T18:52:56;7.90;99.90
46159;DHT22;31888;44.512;26.104;2022-11-15T18:55:03;7.90;99.90
46159;DHT22;31888;44.512;26.104;2022-11-15T18:57:07;7.90;99.90
46159;DHT22;31888;44.512;26.104;2022-11-15T18:59:12;7.90;99.90
46159;DHT22;31888;44.512;26.104;2022-11-15T19:01:19;7.90;99.90
46159;DHT22;31888;44.512;26.104;2022-11-15T19:03:23;8.00;99.90
46159;DHT22;31888;44.512;26.104;2022-11-15T19:05:28;7.90;99.90
46159;DHT22;31888;44.512;26.104;2022-11-15T19:07:32;7.90;99.90
46159;DHT22;31888;44.512;26.104;2022-11-15T19:09:40;8.00;99.90
46159;DHT22;31888;44.512;26.104;2022-11-15T19:11:45;8.00;99.90
46159;DHT22;31888;44.512;26.104;2022-11-15T19:13:52;8.00;99.90
46159;DHT22;31888;44.512;26.104;2022-11-15T19:15:58;7.90;99.90
46159;DHT22;31888;44.512;26.104;2022-11-15T19:18:04;7.90;99.90
46159;DHT22;31888;44.512;26.104;2022-11-15T19:20:09;8.00;99.90
46159;DHT22;31888;44.512;26.104;2022-11-15T19:22:13;8.00;99.90
46159;DHT22;31888;44.512;26.104;2022-11-15T19:24:18;7.90;99.90
46159;DHT22;31888;44.512;26.104;2022-11-15T19:26:22;7.90;99.90
46159;DHT22;31888;44.512;26.104;2022-11-15T19:28:27;7.90;99.90